Time;durP1;ratioP1;P1;durP2;ratioP2;P2;SDS_P1;SDS_P2;PMS_P1;PMS_P2;Temp;Humidity;BMP_temperature;BMP_pressure;BME280_temperature;BME280_humidity;BME280_pressure;Samples;Min_cycle;Max_cycle;Signal;HPM_P1;HPM_P2
2022/11/07 00:02:24;;;;;;;33.58;15.85;;;8.60;99.90;;;;;;5094766;28;20039;-75
2022/11/07 00:04:50;;;;;;;32.75;14.77;;;8.50;99.90;;;;;;5094669;28;20035;-75
2022/11/07 00:07:16;;;;;;;26.55;13.80;;;8.50;99.90;;;;;;5092951;28;20081;-74
2022/11/07 00:09:41;;;;;;;29.80;13.55;;;8.40;99.90;;;;;;5094611;28;20016;-75
2022/11/07 00:12:07;;;;;;;24.88;12.90;;;8.50;99.90;;;;;;5094395;28;20035;-75
2022/11/07 00:14:33;;;;;;;24.85;11.80;;;8.50;99.90;;;;;;5094356;28;20062;-75
2022/11/07 00:16:59;;;;;;;22.75;11.95;;;8.50;99.90;;;;;;5094671;28;20099;-75
2022/11/07 00:19:25;;;;;;;20.98;10.52;;;8.40;99.90;;;;;;5094606;28;20469;-75
2022/11/07 00:21:50;;;;;;;18.88;9.73;;;8.30;99.90;;;;;;5094284;28;20023;-75
2022/11/07 00:24:17;;;;;;;19.38;10.10;;;8.30;99.90;;;;;;5093795;28;20048;-75
2022/11/07 00:26:46;;;;;;;17.80;9.15;;;8.20;99.90;;;;;;5092647;28;20028;-75
2022/11/07 00:29:17;;;;;;;14.13;7.75;;;8.20;99.90;;;;;;5092685;28;20028;-75
2022/11/07 00:31:43;;;;;;;15.15;8.32;;;8.20;99.90;;;;;;5094277;28;20024;-75
2022/11/07 00:34:10;;;;;;;14.73;7.25;;;8.20;99.90;;;;;;5094236;28;20028;-75
2022/11/07 00:36:36;;;;;;;12.25;6.95;;;8.20;99.90;;;;;;5093998;28;20042;-75
2022/11/07 00:39:02;;;;;;;12.93;7.05;;;8.20;99.90;;;;;;5093871;28;20032;-75
2022/11/07 00:41:27;;;;;;;11.25;6.55;;;8.20;99.90;;;;;;5098039;28;20020;-75
2022/11/07 00:43:53;;;;;;;11.57;6.65;;;8.20;99.90;;;;;;5096341;28;20392;-75
2022/11/07 00:46:19;;;;;;;12.38;6.95;;;8.10;99.90;;;;;;5092512;28;20107;-75
2022/11/07 00:48:46;;;;;;;11.73;6.80;;;8.10;99.90;;;;;;5093913;28;20031;-75
2022/11/07 00:51:23;;;;;;;14.93;7.57;;;8.10;99.90;;;;;;5093540;28;20016;-74
2022/11/07 00:53:49;;;;;;;14.52;8.25;;;8.00;99.90;;;;;;5093526;28;20112;-75
2022/11/07 00:56:19;;;;;;;17.50;8.23;;;8.10;99.90;;;;;;5093716;28;20024;-75
2022/11/07 00:58:45;;;;;;;15.63;7.93;;;8.00;99.90;;;;;;5093470;28;20031;-75
2022/11/07 01:01:21;;;;;;;15.63;8.38;;;8.00;99.90;;;;;;5093373;28;20024;-75
2022/11/07 01:06:33;;;;;;;19.00;9.48;;;8.00;99.90;;;;;;5093492;28;20031;-74
2022/11/07 01:08:59;;;;;;;18.77;9.55;;;8.00;99.90;;;;;;5093022;28;20028;-74
2022/11/07 01:11:26;;;;;;;21.50;9.57;;;7.90;99.90;;;;;;5092906;28;20027;-75
2022/11/07 01:14:00;;;;;;;17.10;8.48;;;7.90;99.90;;;;;;5093000;28;20093;-75
2022/11/07 01:16:27;;;;;;;18.05;9.40;;;7.80;99.90;;;;;;5093232;28;20027;-75
2022/11/07 01:18:53;;;;;;;15.60;8.48;;;7.90;99.90;;;;;;5091963;28;20118;-75
2022/11/07 01:21:19;;;;;;;14.32;8.20;;;8.00;99.90;;;;;;5092720;28;20019;-75
2022/11/07 01:23:46;;;;;;;18.38;9.27;;;7.90;99.90;;;;;;5092924;28;20120;-75
2022/11/07 01:26:12;;;;;;;17.17;9.63;;;7.80;99.90;;;;;;5093029;28;20020;-75
2022/11/07 01:28:38;;;;;;;18.05;9.23;;;7.90;99.90;;;;;;5092654;28;20025;-75
2022/11/07 01:31:06;;;;;;;19.88;10.15;;;7.90;99.90;;;;;;5092860;28;20367;-75
2022/11/07 01:33:33;;;;;;;20.65;11.07;;;7.90;99.90;;;;;;5093071;28;20111;-75
2022/11/07 01:36:04;;;;;;;21.05;10.38;;;7.90;99.90;;;;;;5092895;28;20020;-75
2022/11/07 01:38:30;;;;;;;19.67;10.43;;;7.80;99.90;;;;;;5092614;28;20028;-74
2022/11/07 01:43:46;;;;;;;22.08;11.30;;;7.80;99.90;;;;;;5097489;28;20039;-75
2022/11/07 01:46:12;;;;;;;20.42;10.30;;;7.80;99.90;;;;;;5092650;28;20024;-75
2022/11/07 01:48:41;;;;;;;18.48;9.25;;;7.80;99.90;;;;;;5092793;28;20061;-75
2022/11/07 01:51:07;;;;;;;20.85;10.52;;;7.70;99.90;;;;;;5091263;28;20044;-75
2022/11/07 01:53:35;;;;;;;21.55;10.02;;;7.80;99.90;;;;;;5092629;28;20476;-74
2022/11/07 01:56:03;;;;;;;17.67;10.38;;;7.70;99.90;;;;;;5090963;28;20523;-75
2022/11/07 01:58:29;;;;;;;16.38;9.20;;;7.70;99.90;;;;;;5091228;28;20054;-74
2022/11/07 02:00:55;;;;;;;17.70;9.68;;;7.70;99.90;;;;;;5092737;28;20024;-75
2022/11/07 02:03:22;;;;;;;20.27;9.77;;;7.70;99.90;;;;;;5091386;28;20544;-74
2022/11/07 02:06:04;;;;;;;19.40;10.30;;;7.70;99.90;;;;;;5092469;28;20020;-74
2022/11/07 02:08:32;;;;;;;17.83;10.07;;;7.50;99.90;;;;;;5092149;28;20504;-75
2022/11/07 02:11:01;;;;;;;19.98;10.55;;;7.60;99.90;;;;;;5090590;28;20020;-74
2022/11/07 02:13:28;;;;;;;17.98;10.13;;;7.70;99.90;;;;;;5090866;28;20119;-75
2022/11/07 02:15:54;;;;;;;16.95;8.93;;;7.60;99.90;;;;;;5091815;28;20040;-75
2022/11/07 02:18:21;;;;;;;13.68;8.90;;;7.50;99.90;;;;;;5092250;28;20028;-75
2022/11/07 02:20:48;;;;;;;14.07;8.45;;;7.50;99.90;;;;;;5092402;28;20019;-75
2022/11/07 02:23:26;;;;;;;13.63;8.07;;;7.50;99.90;;;;;;5091902;28;20046;-75
2022/11/07 02:25:52;;;;;;;12.60;7.70;;;7.50;99.90;;;;;;5092305;28;20024;-75
2022/11/07 02:28:20;;;;;;;14.13;8.40;;;7.50;99.90;;;;;;5092456;28;20060;-75
2022/11/07 02:30:46;;;;;;;9.82;6.50;;;7.40;99.90;;;;;;5092259;28;20061;-75
2022/11/07 02:33:20;;;;;;;11.40;6.53;;;7.50;99.90;;;;;;5092121;28;20610;-75
2022/11/07 02:35:51;;;;;;;8.85;5.93;;;7.40;99.90;;;;;;5092325;28;20016;-75
2022/11/07 02:38:26;;;;;;;9.48;5.97;;;7.40;99.90;;;;;;5092180;28;20028;-75
2022/11/07 02:41:00;;;;;;;11.55;5.95;;;7.40;99.90;;;;;;5092882;28;20016;-74
2022/11/07 02:43:28;;;;;;;10.45;5.85;;;7.30;99.90;;;;;;5098869;28;20038;-74
2022/11/07 02:45:56;;;;;;;8.38;5.28;;;7.30;99.90;;;;;;5091611;28;20063;-75
2022/11/07 02:48:26;;;;;;;7.30;5.25;;;7.30;99.90;;;;;;5092195;28;20052;-75
2022/11/07 02:50:52;;;;;;;6.03;4.30;;;7.30;99.90;;;;;;5092151;28;20024;-75
2022/11/07 02:53:17;;;;;;;8.15;5.40;;;7.30;99.90;;;;;;5091562;28;20517;-75
2022/11/07 02:55:43;;;;;;;7.38;4.80;;;7.30;99.90;;;;;;5091804;28;20497;-75
2022/11/07 02:58:09;;;;;;;5.95;4.35;;;7.30;99.90;;;;;;5091796;28;20083;-75
2022/11/07 03:00:34;;;;;;;6.40;4.10;;;7.30;99.90;;;;;;5090494;28;20036;-75
2022/11/07 03:03:00;;;;;;;6.25;4.18;;;7.20;99.90;;;;;;5090577;28;20039;-75
2022/11/07 03:05:26;;;;;;;5.97;4.18;;;7.30;99.90;;;;;;5092080;28;20031;-74
2022/11/07 03:07:51;;;;;;;6.80;4.30;;;7.30;99.90;;;;;;5091829;28;20052;-75
2022/11/07 03:10:17;;;;;;;6.60;4.25;;;7.20;99.90;;;;;;5091815;28;20482;-74
2022/11/07 03:12:43;;;;;;;5.28;3.50;;;7.20;99.90;;;;;;5090045;28;20503;-75
2022/11/07 03:15:10;;;;;;;6.55;4.07;;;7.10;99.90;;;;;;5091747;28;20020;-75
2022/11/07 03:17:36;;;;;;;5.47;3.80;;;7.10;99.90;;;;;;5091819;28;20042;-74
2022/11/07 03:20:02;;;;;;;3.83;3.25;;;7.10;99.90;;;;;;5090487;28;20485;-75
2022/11/07 03:22:28;;;;;;;5.13;3.58;;;7.20;99.90;;;;;;5091603;28;20020;-75
2022/11/07 03:24:54;;;;;;;5.25;3.40;;;7.10;99.90;;;;;;5090238;28;20104;-75
2022/11/07 03:27:19;;;;;;;4.70;3.17;;;7.10;99.90;;;;;;5095083;28;20027;-74
2022/11/07 03:29:45;;;;;;;4.68;3.38;;;7.00;99.90;;;;;;5095606;28;20032;-75
2022/11/07 03:32:11;;;;;;;4.38;3.17;;;7.00;99.90;;;;;;5095234;28;20035;-74
2022/11/07 03:34:37;;;;;;;4.90;3.00;;;7.00;99.90;;;;;;5095265;28;20024;-74
2022/11/07 03:37:03;;;;;;;4.78;3.58;;;7.10;99.90;;;;;;5095188;28;20502;-74
2022/11/07 03:39:29;;;;;;;4.97;3.15;;;6.90;99.90;;;;;;5094703;28;20554;-75
2022/11/07 03:41:54;;;;;;;4.72;3.67;;;6.90;99.90;;;;;;5104327;28;20020;-75
2022/11/07 03:44:20;;;;;;;5.05;3.15;;;6.90;99.90;;;;;;5094509;28;20085;-75
2022/11/07 03:46:46;;;;;;;3.78;3.03;;;6.90;99.90;;;;;;5094840;28;20363;-74
2022/11/07 03:49:11;;;;;;;4.53;3.38;;;6.90;99.90;;;;;;5095002;28;20100;-74
2022/11/07 03:51:37;;;;;;;4.03;3.00;;;7.00;99.90;;;;;;5093595;28;20024;-74
2022/11/07 03:54:03;;;;;;;4.28;2.88;;;6.90;99.90;;;;;;5093035;28;20608;-75
2022/11/07 03:56:28;;;;;;;2.75;2.47;;;6.80;99.90;;;;;;5094933;28;20026;-74
2022/11/07 03:58:54;;;;;;;4.80;3.28;;;6.90;99.90;;;;;;5095003;28;20512;-75
2022/11/07 04:01:20;;;;;;;4.38;2.78;;;6.80;99.90;;;;;;5094532;28;20481;-74
2022/11/07 04:03:45;;;;;;;3.88;3.05;;;6.80;99.90;;;;;;5094904;28;20063;-74
2022/11/07 04:06:11;;;;;;;4.75;3.00;;;6.80;99.90;;;;;;5094795;28;20020;-74
2022/11/07 04:08:37;;;;;;;4.05;2.72;;;6.70;99.90;;;;;;5092689;28;20028;-74
2022/11/07 04:11:02;;;;;;;3.78;2.53;;;6.70;99.90;;;;;;5092900;28;20031;-75
2022/11/07 04:18:57;;;;;;;3.85;2.75;;;6.60;99.90;;;;;;5094887;28;20034;-75
2022/11/07 04:21:23;;;;;;;5.18;3.00;;;6.60;99.90;;;;;;5094339;28;20024;-75
2022/11/07 04:23:49;;;;;;;3.38;2.65;;;6.70;99.90;;;;;;5093621;28;20425;-75
2022/11/07 04:28:59;;;;;;;2.58;2.05;;;6.70;99.90;;;;;;5094313;28;20116;-75
2022/11/07 04:31:25;;;;;;;3.97;2.55;;;6.60;99.90;;;;;;5092916;28;20103;-75
2022/11/07 04:33:51;;;;;;;2.92;2.33;;;6.60;99.90;;;;;;5093817;28;20486;-74
2022/11/07 04:36:17;;;;;;;3.17;2.85;;;6.60;99.90;;;;;;5093480;28;20031;-75
2022/11/07 04:38:43;;;;;;;4.25;2.35;;;6.60;99.90;;;;;;5093355;28;20028;-75
2022/11/07 04:41:22;;;;;;;3.70;2.67;;;6.60;99.90;;;;;;5096913;28;20042;-75
2022/11/07 04:43:48;;;;;;;4.07;2.95;;;6.50;99.90;;;;;;5096193;28;20036;-75
2022/11/07 04:46:15;;;;;;;4.03;2.67;;;6.50;99.90;;;;;;5094028;28;20043;-74
2022/11/07 04:48:41;;;;;;;3.50;2.20;;;6.40;99.90;;;;;;5093378;28;20106;-74
2022/11/07 04:51:15;;;;;;;3.45;2.60;;;6.50;99.90;;;;;;5093679;28;20028;-75
2022/11/07 04:53:41;;;;;;;2.63;2.00;;;6.50;99.90;;;;;;5093550;28;20051;-75
2022/11/07 04:56:06;;;;;;;3.08;2.53;;;6.40;99.90;;;;;;5093688;28;20513;-74
2022/11/07 04:58:32;;;;;;;4.80;2.80;;;6.30;99.90;;;;;;5093383;28;20028;-75
2022/11/07 05:00:57;;;;;;;5.53;3.60;;;6.30;99.90;;;;;;5093757;28;20024;-75
2022/11/07 05:03:23;;;;;;;8.52;4.55;;;6.20;99.90;;;;;;5092000;28;20127;-75
2022/11/07 05:05:49;;;;;;;7.75;4.60;;;6.20;99.90;;;;;;5093441;28;20032;-75
2022/11/07 05:08:15;;;;;;;9.10;4.80;;;6.20;99.90;;;;;;5093469;28;20035;-74
2022/11/07 05:10:40;;;;;;;8.10;4.75;;;6.20;99.90;;;;;;5093328;28;20568;-75
2022/11/07 05:13:06;;;;;;;11.32;6.03;;;6.20;99.90;;;;;;5093376;28;20081;-74
2022/11/07 05:15:32;;;;;;;11.07;5.70;;;6.10;99.90;;;;;;5093038;28;20099;-74
2022/11/07 05:17:57;;;;;;;9.27;5.25;;;6.10;99.90;;;;;;5093115;28;20512;-74
2022/11/07 05:20:28;;;;;;;9.93;5.22;;;6.10;99.90;;;;;;5093150;28;20104;-75
2022/11/07 05:25:47;;;;;;;6.90;4.05;;;6.10;99.90;;;;;;5093213;28;20038;-74
2022/11/07 05:28:15;;;;;;;7.32;4.35;;;6.10;99.90;;;;;;5093027;28;20062;-75
2022/11/07 05:30:42;;;;;;;7.50;4.05;;;6.10;99.90;;;;;;5093157;28;20069;-74
2022/11/07 05:33:10;;;;;;;6.50;4.32;;;6.10;99.90;;;;;;5091464;28;20031;-74
2022/11/07 05:35:36;;;;;;;5.57;3.63;;;6.00;99.90;;;;;;5091420;28;20024;-75
2022/11/07 05:38:02;;;;;;;5.93;3.67;;;6.00;99.90;;;;;;5092708;28;20036;-75
2022/11/07 05:40:28;;;;;;;5.75;3.38;;;6.10;99.90;;;;;;5092983;28;20020;-75
2022/11/07 05:43:04;;;;;;;5.68;3.35;;;6.10;99.90;;;;;;5100966;28;20505;-74
2022/11/07 05:45:33;;;;;;;5.68;2.70;;;6.00;99.90;;;;;;5092857;28;20024;-74
2022/11/07 05:48:00;;;;;;;5.00;3.00;;;5.90;99.90;;;;;;5092212;28;20032;-74
2022/11/07 05:50:27;;;;;;;4.07;3.20;;;6.10;99.90;;;;;;5092590;28;20043;-74
2022/11/07 05:52:53;;;;;;;4.03;2.40;;;6.10;99.90;;;;;;5092405;28;20024;-75
2022/11/07 05:55:19;;;;;;;3.58;2.40;;;6.00;99.90;;;;;;5092585;28;20021;-74
2022/11/07 05:57:45;;;;;;;4.22;3.17;;;5.90;99.90;;;;;;5092551;28;20535;-74
2022/11/07 06:00:11;;;;;;;3.80;2.85;;;5.90;99.90;;;;;;5092768;28;20045;-74
2022/11/07 06:02:36;;;;;;;4.15;2.55;;;5.90;99.90;;;;;;5092191;28;20028;-74
2022/11/07 06:05:02;;;;;;;3.97;2.30;;;5.90;99.90;;;;;;5092506;28;20466;-74
2022/11/07 06:07:28;;;;;;;3.30;2.58;;;5.90;99.90;;;;;;5091158;28;20874;-75
2022/11/07 06:09:54;;;;;;;3.53;2.35;;;6.00;99.90;;;;;;5092092;28;20063;-74
2022/11/07 06:12:19;;;;;;;3.85;2.33;;;6.00;99.90;;;;;;5092292;28;20031;-74
2022/11/07 06:14:45;;;;;;;3.25;2.00;;;5.90;99.90;;;;;;5092142;28;20104;-74
2022/11/07 06:17:11;;;;;;;3.72;2.28;;;5.80;99.90;;;;;;5090779;28;20024;-74
2022/11/07 06:19:36;;;;;;;3.90;2.33;;;5.80;99.90;;;;;;5092263;28;20160;-74
2022/11/07 06:22:02;;;;;;;4.63;2.53;;;5.80;99.90;;;;;;5092487;28;20381;-74
2022/11/07 06:24:27;;;;;;;3.22;2.22;;;5.80;99.90;;;;;;5091905;28;20493;-74
2022/11/07 06:26:53;;;;;;;3.22;2.42;;;5.80;99.90;;;;;;5092297;28;20070;-74
2022/11/07 06:29:19;;;;;;;2.85;2.55;;;5.80;99.90;;;;;;5090886;28;20035;-74
2022/11/07 06:31:45;;;;;;;3.50;2.33;;;5.70;99.90;;;;;;5092044;28;20027;-74
2022/11/07 06:34:10;;;;;;;3.35;2.38;;;5.80;99.90;;;;;;5090809;28;20131;-74
2022/11/07 06:36:36;;;;;;;3.30;2.30;;;5.80;99.90;;;;;;5090636;28;20043;-74
2022/11/07 06:39:02;;;;;;;2.42;2.10;;;5.80;99.90;;;;;;5091931;28;20036;-74
2022/11/07 06:41:27;;;;;;;3.75;2.70;;;5.70;99.90;;;;;;5096161;28;20015;-73
2022/11/07 06:43:53;;;;;;;4.88;2.78;;;5.60;99.90;;;;;;5094890;28;20028;-75
2022/11/07 06:46:21;;;;;;;5.63;2.85;;;5.70;99.90;;;;;;5090615;28;20027;-74
2022/11/07 06:48:47;;;;;;;4.40;2.50;;;5.80;99.90;;;;;;5090840;28;20031;-74
2022/11/07 06:51:13;;;;;;;3.15;2.22;;;5.70;99.90;;;;;;5091987;28;20099;-74
2022/11/07 06:53:39;;;;;;;3.25;2.20;;;5.70;99.90;;;;;;5090355;28;20152;-74
2022/11/07 06:56:06;;;;;;;4.40;2.45;;;5.70;99.90;;;;;;5090630;28;20017;-74
2022/11/07 06:58:32;;;;;;;2.42;1.92;;;5.70;99.90;;;;;;5091841;28;20028;-74
2022/11/07 07:01:03;;;;;;;3.85;2.60;;;5.70;99.90;;;;;;5094087;28;20016;-74
2022/11/07 07:03:29;;;;;;;2.73;2.00;;;5.70;99.90;;;;;;5096020;28;20028;-74
2022/11/07 07:06:02;;;;;;;3.03;2.13;;;5.80;99.90;;;;;;5095774;28;20055;-74
2022/11/07 07:08:29;;;;;;;2.83;2.10;;;5.90;99.90;;;;;;5095541;28;20020;-74
2022/11/07 07:10:54;;;;;;;2.85;2.25;;;5.90;99.90;;;;;;5095701;28;20074;-74
2022/11/07 07:13:20;;;;;;;3.47;1.92;;;5.90;99.90;;;;;;5095728;28;20427;-74
2022/11/07 07:15:56;;;;;;;2.95;2.00;;;5.90;99.90;;;;;;5095554;28;20068;-74
2022/11/07 07:18:22;;;;;;;2.90;2.30;;;5.80;99.90;;;;;;5095690;28;20023;-74
2022/11/07 07:20:49;;;;;;;3.42;2.33;;;5.80;99.90;;;;;;5094015;28;20023;-74
2022/11/07 07:23:16;;;;;;;4.43;2.90;;;5.80;99.90;;;;;;5093377;28;20051;-74
2022/11/07 07:25:42;;;;;;;3.38;2.88;;;6.00;99.90;;;;;;5095626;28;20035;-74
2022/11/07 07:28:08;;;;;;;5.45;3.67;;;6.00;99.90;;;;;;5095684;28;20028;-74
2022/11/07 07:30:34;;;;;;;4.75;3.63;;;6.00;99.90;;;;;;5095186;28;20099;-74
2022/11/07 07:32:59;;;;;;;4.28;3.45;;;6.00;99.90;;;;;;5095590;28;20465;-74
2022/11/07 07:35:25;;;;;;;5.43;3.60;;;6.00;99.90;;;;;;5093898;28;20482;-75
2022/11/07 07:37:52;;;;;;;3.25;2.95;;;6.10;99.90;;;;;;5094969;28;20486;-74
2022/11/07 07:40:18;;;;;;;3.45;3.10;;;6.20;99.90;;;;;;5094885;28;20027;-74
2022/11/07 07:42:44;;;;;;;4.70;3.30;;;6.20;99.90;;;;;;5103928;28;20103;-74
2022/11/07 07:45:11;;;;;;;5.20;3.60;;;6.20;99.90;;;;;;5093480;28;20024;-74
2022/11/07 07:47:37;;;;;;;3.90;3.38;;;6.30;99.90;;;;;;5095220;28;20020;-74
2022/11/07 07:50:03;;;;;;;3.30;2.88;;;6.50;99.90;;;;;;5094689;28;20030;-74
2022/11/07 07:52:29;;;;;;;4.15;3.58;;;6.60;99.90;;;;;;5094895;28;20024;-74
2022/11/07 07:54:55;;;;;;;3.05;2.58;;;6.60;99.90;;;;;;5094771;28;20020;-74
2022/11/07 07:57:21;;;;;;;5.80;3.38;;;6.70;99.90;;;;;;5094745;28;20512;-74
2022/11/07 07:59:46;;;;;;;4.45;3.35;;;6.80;99.90;;;;;;5094715;28;20481;-74
2022/11/07 08:02:12;;;;;;;4.18;2.90;;;6.80;99.90;;;;;;5093371;28;20473;-75
2022/11/07 08:04:40;;;;;;;3.78;3.03;;;7.00;99.90;;;;;;5093289;28;20023;-74
2022/11/07 08:07:06;;;;;;;4.90;2.92;;;7.10;99.90;;;;;;5094675;28;20479;-74
2022/11/07 08:09:35;;;;;;;5.00;3.33;;;7.10;99.90;;;;;;5094480;28;20042;-74
2022/11/07 08:12:10;;;;;;;4.35;2.97;;;7.10;99.90;;;;;;5094228;28;20035;-74
2022/11/07 08:14:35;;;;;;;4.28;2.88;;;7.10;99.90;;;;;;5094281;28;20024;-74
2022/11/07 08:17:01;;;;;;;5.95;2.92;;;7.20;99.90;;;;;;5094804;28;20028;-74
2022/11/07 08:19:27;;;;;;;3.60;2.70;;;7.40;99.90;;;;;;5092916;28;20047;-74
2022/11/07 08:21:52;;;;;;;4.25;3.05;;;7.40;99.90;;;;;;5092854;28;20039;-74
2022/11/07 08:24:18;;;;;;;3.60;2.88;;;8.00;99.90;;;;;;5093906;28;20578;-74
2022/11/07 08:26:44;;;;;;;3.78;2.42;;;8.60;99.90;;;;;;5094171;28;20555;-75
2022/11/07 08:29:09;;;;;;;3.13;2.53;;;8.90;99.90;;;;;;5092593;28;20028;-75
2022/11/07 08:31:35;;;;;;;4.90;2.50;;;8.50;99.90;;;;;;5094249;28;20034;-74
2022/11/07 08:34:01;;;;;;;4.80;2.13;;;8.30;99.90;;;;;;5094204;28;20028;-74
2022/11/07 08:36:27;;;;;;;3.92;2.25;;;8.20;99.90;;;;;;5094190;28;20488;-75
2022/11/07 08:38:53;;;;;;;3.83;2.47;;;8.30;99.90;;;;;;5093733;28;20024;-75
2022/11/07 08:41:19;;;;;;;2.45;1.95;;;9.30;99.90;;;;;;5096851;28;20435;-75
2022/11/07 08:43:46;;;;;;;3.42;2.20;;;9.70;99.90;;;;;;5097687;28;20035;-75
2022/11/07 08:46:12;;;;;;;3.25;2.45;;;9.80;99.90;;;;;;5094137;28;20031;-75
2022/11/07 08:48:39;;;;;;;2.45;2.17;;;9.20;99.90;;;;;;5092296;28;20028;-75
2022/11/07 08:51:04;;;;;;;2.25;2.05;;;9.30;99.90;;;;;;5093785;28;20028;-75
2022/11/07 08:53:31;;;;;;;2.20;2.00;;;10.40;99.90;;;;;;5093471;28;20073;-75
2022/11/07 08:56:04;;;;;;;3.22;2.35;;;9.80;99.90;;;;;;5093680;28;20048;-75
2022/11/07 08:58:30;;;;;;;3.13;2.28;;;9.40;99.90;;;;;;5093668;28;20024;-74
2022/11/07 09:00:56;;;;;;;3.42;2.20;;;9.40;99.90;;;;;;5093561;28;20111;-75
2022/11/07 09:03:22;;;;;;;3.67;1.98;;;9.20;99.90;;;;;;5093696;28;20031;-75
2022/11/07 09:05:48;;;;;;;3.33;2.58;;;9.80;99.90;;;;;;5093499;28;20493;-75
2022/11/07 09:08:13;;;;;;;2.50;2.10;;;10.00;99.90;;;;;;5093231;28;20061;-75
2022/11/07 09:10:39;;;;;;;3.75;2.30;;;9.90;99.90;;;;;;5093381;28;20394;-75
2022/11/07 09:13:05;;;;;;;2.35;1.95;;;9.90;99.90;;;;;;5091672;28;20020;-76
2022/11/07 09:15:31;;;;;;;2.85;2.08;;;10.70;99.90;;;;;;5091884;28;20034;-75
2022/11/07 09:18:05;;;;;;;3.00;2.17;;;11.40;99.90;;;;;;5091836;28;20028;-75
2022/11/07 09:20:31;;;;;;;3.83;2.50;;;10.90;99.90;;;;;;5093263;28;20031;-75
2022/11/07 09:22:58;;;;;;;3.53;2.35;;;10.90;99.90;;;;;;5092590;28;20024;-75
2022/11/07 09:25:24;;;;;;;2.47;2.13;;;10.70;99.90;;;;;;5092711;28;20035;-75
2022/11/07 09:27:53;;;;;;;4.22;2.60;;;10.70;99.90;;;;;;5093013;28;20093;-75
2022/11/07 09:30:19;;;;;;;3.92;2.55;;;10.80;99.90;;;;;;5093307;28;20031;-75
2022/11/07 09:32:45;;;;;;;3.88;2.50;;;10.90;99.90;;;;;;5093243;28;20500;-75
2022/11/07 09:35:12;;;;;;;3.33;2.28;;;11.00;99.90;;;;;;5092939;28;20050;-75
2022/11/07 09:37:38;;;;;;;2.63;2.33;;;10.90;99.90;;;;;;5091765;28;20024;-75
2022/11/07 09:40:06;;;;;;;3.17;2.40;;;10.90;99.90;;;;;;5090901;28;20481;-75
2022/11/07 09:42:47;;;;;;;3.45;2.40;;;11.10;99.90;;;;;;5101409;28;20023;-75
2022/11/07 09:45:13;;;;;;;5.07;2.60;;;11.10;99.90;;;;;;5092675;28;20054;-75
2022/11/07 09:47:56;;;;;;;3.97;2.45;;;11.20;99.90;;;;;;5091328;28;20413;-75
2022/11/07 09:50:36;;;;;;;6.55;2.92;;;11.30;99.90;;;;;;5092780;28;20063;-75
2022/11/07 09:53:37;;;;;;;4.70;3.22;;;11.50;99.90;;;;;;5092968;28;20507;-75
2022/11/07 09:56:04;;;;;;;4.95;2.90;;;11.70;99.90;;;;;;5092060;28;20035;-75
2022/11/07 09:58:39;;;;;;;4.85;3.03;;;11.70;99.90;;;;;;5091412;28;20030;-75
2022/11/07 10:01:15;;;;;;;3.72;2.95;;;11.70;99.90;;;;;;5092493;28;20036;-75
2022/11/07 10:03:42;;;;;;;4.57;2.63;;;11.80;99.90;;;;;;5092553;28;20026;-75
2022/11/07 10:06:28;;;;;;;4.72;2.67;;;11.90;99.90;;;;;;5091053;28;20527;-75
2022/11/07 10:09:18;;;;;;;4.50;2.63;;;12.00;99.90;;;;;;5092285;28;20046;-76
2022/11/07 10:11:52;;;;;;;4.25;2.78;;;12.20;99.90;;;;;;5092251;28;20534;-75
2022/11/07 10:14:33;;;;;;;3.38;2.40;;;12.20;99.90;;;;;;5091155;28;20028;-76
2022/11/07 10:17:19;;;;;;;3.20;2.57;;;12.30;99.90;;;;;;5092681;28;20024;-75
2022/11/07 10:20:06;;;;;;;3.78;2.08;;;12.40;99.90;;;;;;5092469;28;20054;-75
2022/11/07 10:22:48;;;;;;;5.70;2.75;;;12.40;99.90;;;;;;5092298;28;20032;-75
2022/11/07 10:25:25;;;;;;;6.60;2.45;;;12.60;99.90;;;;;;5091457;28;20089;-75
2022/11/07 10:27:59;;;;;;;4.68;2.53;;;12.60;99.90;;;;;;5092238;28;20113;-76
2022/11/07 10:30:25;;;;;;;3.58;2.75;;;12.70;99.90;;;;;;5092361;28;20042;-76
2022/11/07 10:33:11;;;;;;;3.85;2.75;;;12.90;99.90;;;;;;5092269;28;20495;-76
2022/11/07 10:35:41;;;;;;;4.20;2.72;;;13.10;99.90;;;;;;5083186;28;20111;-75
2022/11/07 10:38:24;;;;;;;4.13;2.97;;;13.10;99.90;;;;;;5094685;28;20031;-76
2022/11/07 10:40:50;;;;;;;6.10;3.03;;;13.40;99.90;;;;;;5096554;28;20056;-75
2022/11/07 10:43:32;;;;;;;5.60;3.20;;;13.40;99.90;;;;;;5104163;28;20115;-75
2022/11/07 10:46:00;;;;;;;4.05;2.80;;;13.40;99.90;;;;;;5096081;28;20072;-76
2022/11/07 10:48:28;;;;;;;4.43;2.80;;;13.60;99.90;;;;;;5094730;28;20055;-76
2022/11/07 10:50:55;;;;;;;3.17;2.17;;;13.80;99.90;;;;;;5094697;28;20027;-76
2022/11/07 10:53:24;;;;;;;2.80;2.53;;;14.10;99.90;;;;;;5094315;28;20016;-75
2022/11/07 10:55:51;;;;;;;3.00;2.05;;;14.50;99.90;;;;;;5094498;28;20036;-75
2022/11/07 10:58:23;;;;;;;4.15;2.05;;;14.50;99.90;;;;;;5096121;28;20059;-75
2022/11/07 11:01:14;;;;;;;;;;;14.70;99.90;;;;;;5096284;28;20024;-75
2022/11/07 11:03:43;;;;;;;3.72;2.03;;;14.90;99.90;;;;;;5091956;28;19959;-76
2022/11/07 11:06:30;;;;;;;4.03;1.98;;;15.30;99.90;;;;;;5094448;28;20513;-75
2022/11/07 11:08:56;;;;;;;3.50;1.77;;;15.30;99.90;;;;;;5095439;28;20030;-76
2022/11/07 11:11:33;;;;;;;1.98;1.65;;;15.10;99.90;;;;;;5093848;28;20024;-76
2022/11/07 11:14:14;;;;;;;2.72;1.70;;;15.50;99.90;;;;;;5095690;28;20103;-76
2022/11/07 11:16:41;;;;;;;2.42;1.50;;;15.40;99.90;;;;;;5095720;28;20012;-76
2022/11/07 11:19:51;;;;;;;1.27;1.17;;;15.50;99.90;;;;;;5095928;28;20052;-76
2022/11/07 11:22:20;;;;;;;3.10;1.20;;;15.70;99.90;;;;;;5032690;28;20026;-76
2022/11/07 11:24:56;;;;;;;2.17;1.13;;;15.40;99.90;;;;;;5015429;28;20127;-76
2022/11/07 11:27:24;;;;;;;1.42;1.30;;;15.50;99.90;;;;;;5015996;28;20033;-75
2022/11/07 11:30:15;;;;;;;2.13;1.45;;;15.50;99.90;;;;;;5032855;28;20022;-75
2022/11/07 11:32:56;;;;;;;2.17;1.73;;;15.50;99.90;;;;;;5015998;28;20021;-76
2022/11/07 11:35:52;;;;;;;2.13;1.58;;;15.80;99.90;;;;;;5032567;28;20036;-76
2022/11/07 11:38:24;;;;;;;1.60;1.50;;;15.80;99.90;;;;;;5032325;28;20037;-76
2022/11/07 11:41:12;;;;;;;;;;;16.00;99.90;;;;;;5016812;28;20150;-76
2022/11/07 11:43:43;;;;;;;2.42;1.65;;;16.00;99.90;;;;;;5024577;28;20400;-76
2022/11/07 11:46:20;;;;;;;5.07;3.30;;;16.10;99.90;;;;;;5031729;28;20114;-76
2022/11/07 11:48:52;;;;;;;6.28;3.47;;;16.30;99.90;;;;;;5032416;28;20047;-76
2022/11/07 11:51:29;;;;;;;10.23;5.18;;;16.10;99.90;;;;;;5012337;28;20054;-76
2022/11/07 11:53:55;;;;;;;13.32;7.50;;;16.40;99.90;;;;;;5065504;28;20024;-76
2022/11/07 11:56:25;;;;;;;11.48;7.22;;;16.60;99.90;;;;;;5074898;28;20115;-76
2022/11/07 11:59:13;;;;;;;14.15;6.80;;;16.40;99.90;;;;;;5073314;28;20029;-76
2022/11/07 12:02:02;;;;;;;9.38;5.45;;;16.30;99.90;;;;;;5074466;28;20031;-76
2022/11/07 12:05:12;;;;;;;5.95;3.47;;;16.50;99.90;;;;;;5072879;28;20032;-76
2022/11/07 12:07:56;;;;;;;5.55;2.97;;;16.70;99.90;;;;;;4992485;28;20057;-76
2022/11/07 12:10:40;;;;;;;2.55;2.05;;;16.70;99.90;;;;;;4992645;28;20102;-76
2022/11/07 12:13:27;;;;;;;3.13;1.77;;;16.90;99.90;;;;;;4992337;28;20064;-76
2022/11/07 12:16:23;;;;;;;3.72;1.88;;;16.70;99.90;;;;;;4992546;28;20018;-76
2022/11/07 12:19:02;;;;;;;2.10;1.27;;;16.50;99.90;;;;;;4992585;28;20563;-76
2022/11/07 12:21:50;;;;;;;2.78;1.30;;;17.00;99.90;;;;;;4992209;28;20030;-76
2022/11/07 12:24:25;;;;;;;3.10;1.95;;;16.70;99.90;;;;;;4992249;28;20249;-76
2022/11/07 12:27:08;;;;;;;4.30;2.33;;;16.80;99.90;;;;;;4976029;28;20559;-76
2022/11/07 12:29:48;;;;;;;5.88;2.65;;;16.70;99.90;;;;;;4992342;28;20034;-76
2022/11/07 12:32:46;;;;;;;4.50;3.05;;;16.70;99.90;;;;;;4992356;28;20069;-76
2022/11/07 12:35:36;;;;;;;3.20;2.50;;;16.60;99.90;;;;;;4934109;29;20043;-76
2022/11/07 12:38:32;;;;;;;2.20;1.90;;;16.90;99.90;;;;;;4918253;29;20046;-75
2022/11/07 12:41:16;;;;;;;4.55;2.17;;;16.80;99.90;;;;;;4935460;29;20038;-76
2022/11/07 12:43:53;;;;;;;4.80;2.47;;;17.10;99.90;;;;;;4970528;28;20080;-76
2022/11/07 12:46:56;;;;;;;3.60;1.88;;;17.20;99.90;;;;;;4995279;28;20076;-75
2022/11/07 12:50:05;;;;;;;2.40;1.88;;;17.20;99.90;;;;;;4994780;28;20029;-76
2022/11/07 12:52:45;;;;;;;2.55;1.58;;;17.30;99.90;;;;;;4975498;28;20167;-76
2022/11/07 12:55:18;;;;;;;3.00;1.92;;;17.50;99.90;;;;;;4991817;28;20030;-76
2022/11/07 12:57:46;;;;;;;1.75;1.23;;;17.70;99.90;;;;;;4990707;28;20114;-76
2022/11/07 13:00:16;;;;;;;2.20;1.20;;;17.50;99.90;;;;;;4991789;28;20512;-75
2022/11/07 13:02:53;;;;;;;1.25;1.13;;;17.60;99.90;;;;;;4991521;28;20038;-76
2022/11/07 13:05:56;;;;;;;1.50;1.20;;;17.40;99.90;;;;;;4991450;28;20038;-75
2022/11/07 13:08:42;;;;;;;1.85;1.10;;;17.50;99.90;;;;;;4991367;28;20113;-76
2022/11/07 13:11:42;;;;;;;2.58;1.00;;;17.50;99.90;;;;;;4991895;28;20030;-76
2022/11/07 13:14:39;;;;;;;1.50;1.10;;;17.70;99.90;;;;;;5033685;28;20525;-75
2022/11/07 13:17:29;;;;;;;1.55;0.90;;;17.70;99.70;;;;;;5049884;28;20025;-76
2022/11/07 13:20:01;;;;;;;1.48;1.10;;;17.60;99.30;;;;;;5033925;28;20051;-76
2022/11/07 13:22:39;;;;;;;1.48;1.13;;;17.60;98.40;;;;;;5050538;28;20029;-75
2022/11/07 13:25:07;;;;;;;2.35;1.38;;;17.70;97.30;;;;;;5050180;28;20049;-76